sensor_id;sensor_type;location;lat;lon;timestamp;temperature;humidity
10512;DHT22;5304;48.604;2.096;2023-11-19T05:03:19;12.90;99.90
10512;DHT22;5304;48.604;2.096;2023-11-19T05:06:05;12.80;99.90
10512;DHT22;5304;48.604;2.096;2023-11-19T05:08:49;12.90;99.90
10512;DHT22;5304;48.604;2.096;2023-11-19T05:11:34;12.90;99.90
10512;DHT22;5304;48.604;2.096;2023-11-19T05:14:18;12.90;99.90
10512;DHT22;5304;48.604;2.096;2023-11-19T05:17:04;12.70;99.90
10512;DHT22;5304;48.604;2.096;2023-11-19T05:19:48;12.80;99.90
10512;DHT22;5304;48.604;2.096;2023-11-19T05:22:33;12.80;99.90
10512;DHT22;5304;48.604;2.096;2023-11-19T05:25:17;12.70;99.90
10512;DHT22;5304;48.604;2.096;2023-11-19T05:28:01;12.60;99.90
10512;DHT22;5304;48.604;2.096;2023-11-19T05:30:46;12.80;99.90
10512;DHT22;5304;48.604;2.096;2023-11-19T05:33:30;12.80;99.90
10512;DHT22;5304;48.604;2.096;2023-11-19T05:36:14;12.80;99.90
10512;DHT22;5304;48.604;2.096;2023-11-19T05:38:58;12.90;99.90
10512;DHT22;5304;48.604;2.096;2023-11-19T05:41:43;12.90;99.90
10512;DHT22;5304;48.604;2.096;2023-11-19T05:44:27;12.90;99.90
10512;DHT22;5304;48.604;2.096;2023-11-19T05:47:12;12.90;99.90
10512;DHT22;5304;48.604;2.096;2023-11-19T05:49:56;12.90;99.90
10512;DHT22;5304;48.604;2.096;2023-11-19T05:52:40;12.90;99.90
10512;DHT22;5304;48.604;2.096;2023-11-19T05:55:25;12.80;99.90
10512;DHT22;5304;48.604;2.096;2023-11-19T05:58:11;12.80;99.90
10512;DHT22;5304;48.604;2.096;2023-11-19T06:00:59;12.70;99.90
10512;DHT22;5304;48.604;2.096;2023-11-19T06:03:45;12.80;99.90
10512;DHT22;5304;48.604;2.096;2023-11-19T06:06:33;12.70;99.90
10512;DHT22;5304;48.604;2.096;2023-11-19T06:09:18;12.70;99.90
10512;DHT22;5304;48.604;2.096;2023-11-19T06:12:03;12.60;99.90
10512;DHT22;5304;48.604;2.096;2023-11-19T06:14:48;12.60;99.90
10512;DHT22;5304;48.604;2.096;2023-11-19T06:17:32;12.50;99.90
10512;DHT22;5304;48.604;2.096;2023-11-19T06:20:16;12.50;99.90
10512;DHT22;5304;48.604;2.096;2023-11-19T06:23:01;12.50;99.90
10512;DHT22;5304;48.604;2.096;2023-11-19T06:25:45;12.50;99.90
10512;DHT22;5304;48.604;2.096;2023-11-19T06:28:29;12.50;99.90
10512;DHT22;5304;48.604;2.096;2023-11-19T06:31:13;12.50;99.90
10512;DHT22;5304;48.604;2.096;2023-11-19T06:34:00;12.50;99.90
10512;DHT22;5304;48.604;2.096;2023-11-19T06:36:44;12.50;99.90
10512;DHT22;5304;48.604;2.096;2023-11-19T06:39:28;12.40;99.90
10512;DHT22;5304;48.604;2.096;2023-11-19T06:42:13;12.40;99.90
10512;DHT22;5304;48.604;2.096;2023-11-19T06:44:57;12.30;99.90
10512;DHT22;5304;48.604;2.096;2023-11-19T06:47:41;12.30;99.90
10512;DHT22;5304;48.604;2.096;2023-11-19T06:50:25;12.30;99.90
10512;DHT22;5304;48.604;2.096;2023-11-19T06:53:09;12.20;99.90
10512;DHT22;5304;48.604;2.096;2023-11-19T06:55:54;12.10;99.90
10512;DHT22;5304;48.604;2.096;2023-11-19T06:58:38;12.00;99.90
10512;DHT22;5304;48.604;2.096;2023-11-19T07:01:23;11.90;99.90
10512;DHT22;5304;48.604;2.096;2023-11-19T07:04:13;11.90;99.90
10512;DHT22;5304;48.604;2.096;2023-11-19T07:06:57;11.70;99.90
10512;DHT22;5304;48.604;2.096;2023-11-19T07:09:41;11.80;99.90
10512;DHT22;5304;48.604;2.096;2023-11-19T07:12:27;11.80;99.90
10512;DHT22;5304;48.604;2.096;2023-11-19T07:15:11;11.80;99.90
10512;DHT22;5304;48.604;2.096;2023-11-19T07:17:56;11.70;99.90
10512;DHT22;5304;48.604;2.096;2023-11-19T07:20:42;11.70;99.90
10512;DHT22;5304;48.604;2.096;2023-11-19T07:23:26;11.70;99.90
10512;DHT22;5304;48.604;2.096;2023-11-19T07:26:11;11.70;99.90
10512;DHT22;5304;48.604;2.096;2023-11-19T07:28:56;11.70;99.90
10512;DHT22;5304;48.604;2.096;2023-11-19T07:31:40;11.60;99.90
10512;DHT22;5304;48.604;2.096;2023-11-19T07:34:24;11.70;99.90
10512;DHT22;5304;48.604;2.096;2023-11-19T07:37:09;11.80;99.90
10512;DHT22;5304;48.604;2.096;2023-11-19T07:39:53;11.80;99.90
10512;DHT22;5304;48.604;2.096;2023-11-19T07:42:37;11.80;99.90
10512;DHT22;5304;48.604;2.096;2023-11-19T07:45:22;11.80;99.90
10512;DHT22;5304;48.604;2.096;2023-11-19T07:48:06;11.80;99.90
10512;DHT22;5304;48.604;2.096;2023-11-19T07:50:50;11.80;99.90
10512;DHT22;5304;48.604;2.096;2023-11-19T07:53:34;11.90;99.90
10512;DHT22;5304;48.604;2.096;2023-11-19T07:56:19;11.90;99.90
10512;DHT22;5304;48.604;2.096;2023-11-19T07:59:03;12.00;99.90
10512;DHT22;5304;48.604;2.096;2023-11-19T08:01:47;12.10;99.90
10512;DHT22;5304;48.604;2.096;2023-11-19T08:04:32;12.10;99.90
10512;DHT22;5304;48.604;2.096;2023-11-19T08:07:18;12.20;99.90
10512;DHT22;5304;48.604;2.096;2023-11-19T08:10:03;12.20;99.90
10512;DHT22;5304;48.604;2.096;2023-11-19T08:12:49;12.30;99.90
10512;DHT22;5304;48.604;2.096;2023-11-19T08:15:33;12.30;99.90
10512;DHT22;5304;48.604;2.096;2023-11-19T08:18:18;12.40;99.90
10512;DHT22;5304;48.604;2.096;2023-11-19T08:21:02;12.50;99.90
10512;DHT22;5304;48.604;2.096;2023-11-19T08:23:49;12.50;99.90
10512;DHT22;5304;48.604;2.096;2023-11-19T08:26:33;12.60;99.90
10512;DHT22;5304;48.604;2.096;2023-11-19T08:29:17;12.60;99.90
10512;DHT22;5304;48.604;2.096;2023-11-19T08:32:02;12.70;99.90
10512;DHT22;5304;48.604;2.096;2023-11-19T08:34:47;12.80;99.90
10512;DHT22;5304;48.604;2.096;2023-11-19T08:37:31;12.80;99.90
10512;DHT22;5304;48.604;2.096;2023-11-19T08:40:15;12.90;99.90
10512;DHT22;5304;48.604;2.096;2023-11-19T08:43:00;12.90;99.90
10512;DHT22;5304;48.604;2.096;2023-11-19T08:45:44;12.90;99.90
10512;DHT22;5304;48.604;2.096;2023-11-19T08:48:29;12.80;99.90
10512;DHT22;5304;48.604;2.096;2023-11-19T08:51:13;12.80;99.90
10512;DHT22;5304;48.604;2.096;2023-11-19T08:53:57;12.90;99.90
10512;DHT22;5304;48.604;2.096;2023-11-19T08:56:42;13.20;99.90
10512;DHT22;5304;48.604;2.096;2023-11-19T08:59:27;13.50;99.90
10512;DHT22;5304;48.604;2.096;2023-11-19T09:02:11;14.00;99.90
10512;DHT22;5304;48.604;2.096;2023-11-19T09:04:55;14.20;99.90
10512;DHT22;5304;48.604;2.096;2023-11-19T09:07:40;14.50;99.90
10512;DHT22;5304;48.604;2.096;2023-11-19T09:10:24;14.60;99.90
10512;DHT22;5304;48.604;2.096;2023-11-19T09:13:08;14.50;99.90
10512;DHT22;5304;48.604;2.096;2023-11-19T09:15:52;14.40;99.90
10512;DHT22;5304;48.604;2.096;2023-11-19T09:18:36;14.50;99.90
10512;DHT22;5304;48.604;2.096;2023-11-19T09:21:21;14.40;99.90
10512;DHT22;5304;48.604;2.096;2023-11-19T09:24:06;14.20;99.90
10512;DHT22;5304;48.604;2.096;2023-11-19T09:26:51;14.60;99.90
10512;DHT22;5304;48.604;2.096;2023-11-19T09:29:36;14.70;99.90
10512;DHT22;5304;48.604;2.096;2023-11-19T09:32:20;15.00;99.90
10512;DHT22;5304;48.604;2.096;2023-11-19T09:35:05;15.20;99.90
10512;DHT22;5304;48.604;2.096;2023-11-19T09:37:50;15.10;99.90
10512;DHT22;5304;48.604;2.096;2023-11-19T09:40:34;14.80;99.90
10512;DHT22;5304;48.604;2.096;2023-11-19T09:43:20;15.00;99.90
10512;DHT22;5304;48.604;2.096;2023-11-19T09:46:06;15.20;99.90
10512;DHT22;5304;48.604;2.096;2023-11-19T09:48:52;15.50;99.90
10512;DHT22;5304;48.604;2.096;2023-11-19T09:51:39;15.60;99.90
10512;DHT22;5304;48.604;2.096;2023-11-19T09:54:23;15.50;99.90
10512;DHT22;5304;48.604;2.096;2023-11-19T09:57:07;15.50;99.90
10512;DHT22;5304;48.604;2.096;2023-11-19T09:59:53;15.30;99.90
10512;DHT22;5304;48.604;2.096;2023-11-19T10:02:39;15.50;99.90
10512;DHT22;5304;48.604;2.096;2023-11-19T10:05:24;15.60;99.90
10512;DHT22;5304;48.604;2.096;2023-11-19T10:08:08;15.60;99.90
10512;DHT22;5304;48.604;2.096;2023-11-19T10:10:52;15.80;99.90
10512;DHT22;5304;48.604;2.096;2023-11-19T10:13:37;15.70;99.90
10512;DHT22;5304;48.604;2.096;2023-11-19T10:16:29;15.40;99.90
10512;DHT22;5304;48.604;2.096;2023-11-19T10:19:20;15.20;99.90
10512;DHT22;5304;48.604;2.096;2023-11-19T10:22:05;15.20;99.90
10512;DHT22;5304;48.604;2.096;2023-11-19T10:24:50;15.40;99.90
10512;DHT22;5304;48.604;2.096;2023-11-19T10:27:34;15.50;99.90
10512;DHT22;5304;48.604;2.096;2023-11-19T10:33:11;15.40;99.90
10512;DHT22;5304;48.604;2.096;2023-11-19T10:36:01;15.30;99.90
10512;DHT22;5304;48.604;2.096;2023-11-19T10:38:56;15.30;99.90
10512;DHT22;5304;48.604;2.096;2023-11-19T10:41:40;15.50;99.90
10512;DHT22;5304;48.604;2.096;2023-11-19T10:44:32;15.50;99.90
10512;DHT22;5304;48.604;2.096;2023-11-19T10:47:22;15.50;99.90
10512;DHT22;5304;48.604;2.096;2023-11-19T10:50:07;15.40;99.90
10512;DHT22;5304;48.604;2.096;2023-11-19T10:52:57;15.50;99.90
10512;DHT22;5304;48.604;2.096;2023-11-19T10:55:47;15.60;99.90
10512;DHT22;5304;48.604;2.096;2023-11-19T10:58:32;15.60;99.90
10512;DHT22;5304;48.604;2.096;2023-11-19T11:01:20;15.90;99.90
10512;DHT22;5304;48.604;2.096;2023-11-19T11:04:14;15.90;99.90
10512;DHT22;5304;48.604;2.096;2023-11-19T11:06:59;15.90;99.90
10512;DHT22;5304;48.604;2.096;2023-11-19T11:09:44;15.80;99.90
10512;DHT22;5304;48.604;2.096;2023-11-19T11:12:35;15.70;99.90
10512;DHT22;5304;48.604;2.096;2023-11-19T11:15:21;15.60;99.90
10512;DHT22;5304;48.604;2.096;2023-11-19T11:18:06;15.80;99.90
10512;DHT22;5304;48.604;2.096;2023-11-19T11:24:13;15.50;99.90
10512;DHT22;5304;48.604;2.096;2023-11-19T11:36:22;15.10;99.90
10512;DHT22;5304;48.604;2.096;2023-11-19T11:39:07;14.90;99.90
10512;DHT22;5304;48.604;2.096;2023-11-19T11:50:57;14.30;99.90
10512;DHT22;5304;48.604;2.096;2023-11-19T11:53:42;14.20;99.90
10512;DHT22;5304;48.604;2.096;2023-11-19T11:56:33;14.20;99.90
10512;DHT22;5304;48.604;2.096;2023-11-19T11:59:20;14.30;99.90
10512;DHT22;5304;48.604;2.096;2023-11-19T12:02:25;14.50;99.90
10512;DHT22;5304;48.604;2.096;2023-11-19T12:05:10;14.60;99.90
10512;DHT22;5304;48.604;2.096;2023-11-19T12:07:55;14.60;99.90
10512;DHT22;5304;48.604;2.096;2023-11-19T12:10:48;14.40;99.90
10512;DHT22;5304;48.604;2.096;2023-11-19T12:13:55;14.40;99.90
10512;DHT22;5304;48.604;2.096;2023-11-19T12:16:46;14.30;99.90
10512;DHT22;5304;48.604;2.096;2023-11-19T12:19:30;14.20;99.90
10512;DHT22;5304;48.604;2.096;2023-11-19T12:22:15;14.30;99.90
10512;DHT22;5304;48.604;2.096;2023-11-19T12:24:59;14.40;99.90
10512;DHT22;5304;48.604;2.096;2023-11-19T12:27:48;14.50;99.90
10512;DHT22;5304;48.604;2.096;2023-11-19T12:30:32;14.60;99.90
10512;DHT22;5304;48.604;2.096;2023-11-19T12:33:16;14.90;99.90
10512;DHT22;5304;48.604;2.096;2023-11-19T12:36:01;15.10;99.90
10512;DHT22;5304;48.604;2.096;2023-11-19T12:38:49;15.30;99.90
10512;DHT22;5304;48.604;2.096;2023-11-19T12:41:49;15.50;99.90
10512;DHT22;5304;48.604;2.096;2023-11-19T12:44:32;15.80;99.90
10512;DHT22;5304;48.604;2.096;2023-11-19T12:47:18;15.90;99.90
10512;DHT22;5304;48.604;2.096;2023-11-19T12:50:02;15.80;99.90
10512;DHT22;5304;48.604;2.096;2023-11-19T12:52:57;15.70;99.90
10512;DHT22;5304;48.604;2.096;2023-11-19T12:55:42;15.30;99.90
10512;DHT22;5304;48.604;2.096;2023-11-19T12:58:36;15.00;99.90
10512;DHT22;5304;48.604;2.096;2023-11-19T13:01:20;14.80;99.90
10512;DHT22;5304;48.604;2.096;2023-11-19T13:04:20;14.70;99.90
10512;DHT22;5304;48.604;2.096;2023-11-19T13:07:04;14.50;99.90
10512;DHT22;5304;48.604;2.096;2023-11-19T13:09:49;14.40;99.90
10512;DHT22;5304;48.604;2.096;2023-11-19T13:12:33;14.40;99.90
10512;DHT22;5304;48.604;2.096;2023-11-19T13:15:24;14.30;99.90
10512;DHT22;5304;48.604;2.096;2023-11-19T13:18:09;14.30;99.90
10512;DHT22;5304;48.604;2.096;2023-11-19T13:20:54;14.40;99.90
10512;DHT22;5304;48.604;2.096;2023-11-19T13:23:41;14.40;99.90
10512;DHT22;5304;48.604;2.096;2023-11-19T13:26:26;14.50;99.90
10512;DHT22;5304;48.604;2.096;2023-11-19T13:29:10;14.50;99.90
10512;DHT22;5304;48.604;2.096;2023-11-19T13:31:54;14.40;99.90
10512;DHT22;5304;48.604;2.096;2023-11-19T13:34:39;14.50;99.90
10512;DHT22;5304;48.604;2.096;2023-11-19T13:37:23;14.50;99.90
10512;DHT22;5304;48.604;2.096;2023-11-19T13:40:09;14.40;99.90
10512;DHT22;5304;48.604;2.096;2023-11-19T13:42:59;14.40;99.90
10512;DHT22;5304;48.604;2.096;2023-11-19T13:45:43;14.40;99.90
10512;DHT22;5304;48.604;2.096;2023-11-19T13:48:28;14.40;99.90
10512;DHT22;5304;48.604;2.096;2023-11-19T13:51:12;14.40;99.90
10512;DHT22;5304;48.604;2.096;2023-11-19T13:53:57;14.40;99.90
10512;DHT22;5304;48.604;2.096;2023-11-19T13:56:41;14.50;99.90
10512;DHT22;5304;48.604;2.096;2023-11-19T13:59:26;14.50;99.90
10512;DHT22;5304;48.604;2.096;2023-11-19T14:02:10;14.40;99.90
10512;DHT22;5304;48.604;2.096;2023-11-19T14:04:54;14.40;99.90
10512;DHT22;5304;48.604;2.096;2023-11-19T14:07:39;14.50;99.90
10512;DHT22;5304;48.604;2.096;2023-11-19T14:10:24;14.50;99.90
10512;DHT22;5304;48.604;2.096;2023-11-19T14:13:09;14.60;99.90
10512;DHT22;5304;48.604;2.096;2023-11-19T14:15:53;14.60;99.90
10512;DHT22;5304;48.604;2.096;2023-11-19T14:18:37;14.60;99.90
10512;DHT22;5304;48.604;2.096;2023-11-19T14:21:22;14.70;99.90
10512;DHT22;5304;48.604;2.096;2023-11-19T14:24:06;14.70;99.90
10512;DHT22;5304;48.604;2.096;2023-11-19T14:26:51;14.70;99.90
10512;DHT22;5304;48.604;2.096;2023-11-19T14:29:36;14.60;99.90
10512;DHT22;5304;48.604;2.096;2023-11-19T14:32:20;14.40;99.90
10512;DHT22;5304;48.604;2.096;2023-11-19T14:35:06;14.40;99.90
10512;DHT22;5304;48.604;2.096;2023-11-19T14:37:50;14.40;99.90
10512;DHT22;5304;48.604;2.096;2023-11-19T14:40:35;14.50;99.90
10512;DHT22;5304;48.604;2.096;2023-11-19T14:43:19;14.60;99.90
10512;DHT22;5304;48.604;2.096;2023-11-19T14:46:03;14.70;99.90
10512;DHT22;5304;48.604;2.096;2023-11-19T14:48:47;14.70;99.90
10512;DHT22;5304;48.604;2.096;2023-11-19T14:51:31;14.70;99.90
10512;DHT22;5304;48.604;2.096;2023-11-19T14:54:15;14.50;99.90
10512;DHT22;5304;48.604;2.096;2023-11-19T14:57:00;14.30;99.90
10512;DHT22;5304;48.604;2.096;2023-11-19T14:59:44;14.20;99.90
10512;DHT22;5304;48.604;2.096;2023-11-19T15:02:30;14.00;99.90
10512;DHT22;5304;48.604;2.096;2023-11-19T15:05:14;13.90;99.90
10512;DHT22;5304;48.604;2.096;2023-11-19T15:07:59;13.90;99.90
10512;DHT22;5304;48.604;2.096;2023-11-19T15:10:43;13.80;99.90
10512;DHT22;5304;48.604;2.096;2023-11-19T15:13:29;13.80;99.90
10512;DHT22;5304;48.604;2.096;2023-11-19T15:16:13;13.80;99.90
10512;DHT22;5304;48.604;2.096;2023-11-19T15:18:58;13.80;99.90
10512;DHT22;5304;48.604;2.096;2023-11-19T15:21:43;13.70;99.90
10512;DHT22;5304;48.604;2.096;2023-11-19T15:24:27;13.60;99.90
10512;DHT22;5304;48.604;2.096;2023-11-19T15:27:13;13.40;99.90
10512;DHT22;5304;48.604;2.096;2023-11-19T15:29:57;13.40;99.90
10512;DHT22;5304;48.604;2.096;2023-11-19T15:32:42;13.30;99.90
10512;DHT22;5304;48.604;2.096;2023-11-19T15:35:27;13.20;99.90
10512;DHT22;5304;48.604;2.096;2023-11-19T15:38:11;13.10;99.90
10512;DHT22;5304;48.604;2.096;2023-11-19T15:40:55;13.20;99.90
10512;DHT22;5304;48.604;2.096;2023-11-19T15:43:40;13.10;99.90
10512;DHT22;5304;48.604;2.096;2023-11-19T15:46:24;13.00;99.90
10512;DHT22;5304;48.604;2.096;2023-11-19T15:49:09;12.90;99.90
10512;DHT22;5304;48.604;2.096;2023-11-19T15:51:53;12.90;99.90
10512;DHT22;5304;48.604;2.096;2023-11-19T15:54:37;12.80;99.90
10512;DHT22;5304;48.604;2.096;2023-11-19T15:57:22;12.70;99.90
10512;DHT22;5304;48.604;2.096;2023-11-19T16:00:06;12.60;99.90
10512;DHT22;5304;48.604;2.096;2023-11-19T16:02:55;12.70;99.90
10512;DHT22;5304;48.604;2.096;2023-11-19T16:05:41;12.50;99.90
10512;DHT22;5304;48.604;2.096;2023-11-19T16:08:25;12.40;99.90
10512;DHT22;5304;48.604;2.096;2023-11-19T16:11:09;12.30;99.90
10512;DHT22;5304;48.604;2.096;2023-11-19T16:13:54;12.30;99.90
10512;DHT22;5304;48.604;2.096;2023-11-19T16:16:38;12.20;99.90
10512;DHT22;5304;48.604;2.096;2023-11-19T16:19:23;12.20;99.90
10512;DHT22;5304;48.604;2.096;2023-11-19T16:22:08;12.40;99.90
10512;DHT22;5304;48.604;2.096;2023-11-19T16:24:55;12.30;99.90
10512;DHT22;5304;48.604;2.096;2023-11-19T16:27:39;12.30;99.90
10512;DHT22;5304;48.604;2.096;2023-11-19T16:30:24;12.30;99.90
10512;DHT22;5304;48.604;2.096;2023-11-19T16:33:08;12.20;99.90
10512;DHT22;5304;48.604;2.096;2023-11-19T16:35:55;12.20;99.90
10512;DHT22;5304;48.604;2.096;2023-11-19T16:38:41;12.20;99.90
10512;DHT22;5304;48.604;2.096;2023-11-19T16:41:26;12.10;99.90
10512;DHT22;5304;48.604;2.096;2023-11-19T16:44:13;12.10;99.90
10512;DHT22;5304;48.604;2.096;2023-11-19T16:46:58;12.10;99.90
10512;DHT22;5304;48.604;2.096;2023-11-19T16:49:42;12.10;99.90
10512;DHT22;5304;48.604;2.096;2023-11-19T16:52:26;12.10;99.90
10512;DHT22;5304;48.604;2.096;2023-11-19T16:55:11;12.10;99.90
10512;DHT22;5304;48.604;2.096;2023-11-19T16:57:55;12.20;99.90
10512;DHT22;5304;48.604;2.096;2023-11-19T17:00:39;12.20;99.90
10512;DHT22;5304;48.604;2.096;2023-11-19T17:03:24;12.20;99.90
10512;DHT22;5304;48.604;2.096;2023-11-19T17:06:09;12.10;99.90
10512;DHT22;5304;48.604;2.096;2023-11-19T17:08:53;12.10;99.90
10512;DHT22;5304;48.604;2.096;2023-11-19T17:11:41;12.10;99.90
10512;DHT22;5304;48.604;2.096;2023-11-19T17:14:27;12.20;99.90
10512;DHT22;5304;48.604;2.096;2023-11-19T17:17:11;12.20;99.90
10512;DHT22;5304;48.604;2.096;2023-11-19T17:19:56;12.30;99.90
10512;DHT22;5304;48.604;2.096;2023-11-19T17:22:40;12.30;99.90
10512;DHT22;5304;48.604;2.096;2023-11-19T17:25:25;12.40;99.90
10512;DHT22;5304;48.604;2.096;2023-11-19T17:28:09;12.40;99.90
10512;DHT22;5304;48.604;2.096;2023-11-19T17:30:53;12.30;99.90
10512;DHT22;5304;48.604;2.096;2023-11-19T17:33:37;12.40;99.90
10512;DHT22;5304;48.604;2.096;2023-11-19T17:36:22;12.40;99.90
10512;DHT22;5304;48.604;2.096;2023-11-19T17:39:07;12.40;99.90
10512;DHT22;5304;48.604;2.096;2023-11-19T17:41:52;12.20;99.90
10512;DHT22;5304;48.604;2.096;2023-11-19T17:44:36;12.30;99.90
10512;DHT22;5304;48.604;2.096;2023-11-19T17:47:20;12.20;99.90
10512;DHT22;5304;48.604;2.096;2023-11-19T17:50:05;12.20;99.90
10512;DHT22;5304;48.604;2.096;2023-11-19T17:52:49;12.20;99.90
10512;DHT22;5304;48.604;2.096;2023-11-19T17:55:34;12.20;99.90
10512;DHT22;5304;48.604;2.096;2023-11-19T17:58:19;12.20;99.90
10512;DHT22;5304;48.604;2.096;2023-11-19T18:01:04;12.10;99.90
10512;DHT22;5304;48.604;2.096;2023-11-19T18:03:48;12.10;99.90
10512;DHT22;5304;48.604;2.096;2023-11-19T18:06:33;11.90;99.90
10512;DHT22;5304;48.604;2.096;2023-11-19T18:09:18;12.00;99.90
10512;DHT22;5304;48.604;2.096;2023-11-19T18:12:04;11.90;99.90
10512;DHT22;5304;48.604;2.096;2023-11-19T18:14:48;11.90;99.90
10512;DHT22;5304;48.604;2.096;2023-11-19T18:17:34;11.90;99.90
10512;DHT22;5304;48.604;2.096;2023-11-19T18:20:20;11.80;99.90
10512;DHT22;5304;48.604;2.096;2023-11-19T18:23:04;11.80;99.90
10512;DHT22;5304;48.604;2.096;2023-11-19T18:25:48;11.80;99.90
10512;DHT22;5304;48.604;2.096;2023-11-19T18:28:33;11.70;99.90
10512;DHT22;5304;48.604;2.096;2023-11-19T18:31:18;11.70;99.90
10512;DHT22;5304;48.604;2.096;2023-11-19T18:34:02;11.70;99.90
10512;DHT22;5304;48.604;2.096;2023-11-19T18:36:46;11.70;99.90
10512;DHT22;5304;48.604;2.096;2023-11-19T18:39:30;11.80;99.90
10512;DHT22;5304;48.604;2.096;2023-11-19T18:42:15;11.80;99.90
10512;DHT22;5304;48.604;2.096;2023-11-19T18:45:01;11.70;99.90
10512;DHT22;5304;48.604;2.096;2023-11-19T18:47:48;11.70;99.90
10512;DHT22;5304;48.604;2.096;2023-11-19T18:50:34;11.70;99.90
10512;DHT22;5304;48.604;2.096;2023-11-19T18:53:19;11.70;99.90
10512;DHT22;5304;48.604;2.096;2023-11-19T18:56:03;11.60;99.90
10512;DHT22;5304;48.604;2.096;2023-11-19T18:58:50;11.60;99.90
10512;DHT22;5304;48.604;2.096;2023-11-19T19:01:34;11.60;99.90
10512;DHT22;5304;48.604;2.096;2023-11-19T19:04:19;11.60;99.90
10512;DHT22;5304;48.604;2.096;2023-11-19T19:07:03;11.60;99.90
10512;DHT22;5304;48.604;2.096;2023-11-19T19:09:49;11.60;99.90
10512;DHT22;5304;48.604;2.096;2023-11-19T19:12:38;11.40;99.90
10512;DHT22;5304;48.604;2.096;2023-11-19T19:15:23;11.50;99.90
10512;DHT22;5304;48.604;2.096;2023-11-19T19:18:10;11.50;99.90
10512;DHT22;5304;48.604;2.096;2023-11-19T19:20:54;11.50;99.90
10512;DHT22;5304;48.604;2.096;2023-11-19T19:23:38;11.40;99.90
10512;DHT22;5304;48.604;2.096;2023-11-19T19:26:22;11.40;99.90
10512;DHT22;5304;48.604;2.096;2023-11-19T19:29:07;11.40;99.90
10512;DHT22;5304;48.604;2.096;2023-11-19T19:31:51;11.30;99.90
10512;DHT22;5304;48.604;2.096;2023-11-19T19:34:35;11.40;99.90
10512;DHT22;5304;48.604;2.096;2023-11-19T19:37:19;11.40;99.90
10512;DHT22;5304;48.604;2.096;2023-11-19T19:40:04;11.40;99.90
10512;DHT22;5304;48.604;2.096;2023-11-19T19:42:49;11.30;99.90
10512;DHT22;5304;48.604;2.096;2023-11-19T19:45:34;11.20;99.90
10512;DHT22;5304;48.604;2.096;2023-11-19T19:48:19;11.30;99.90
10512;DHT22;5304;48.604;2.096;2023-11-19T19:51:04;11.30;99.90
10512;DHT22;5304;48.604;2.096;2023-11-19T19:53:50;11.20;99.90
10512;DHT22;5304;48.604;2.096;2023-11-19T19:56:34;11.30;99.90
10512;DHT22;5304;48.604;2.096;2023-11-19T19:59:19;11.20;99.90
10512;DHT22;5304;48.604;2.096;2023-11-19T20:02:03;11.20;99.90
10512;DHT22;5304;48.604;2.096;2023-11-19T20:04:47;11.20;99.90
10512;DHT22;5304;48.604;2.096;2023-11-19T20:07:32;11.20;99.90
10512;DHT22;5304;48.604;2.096;2023-11-19T20:10:16;11.20;99.90
10512;DHT22;5304;48.604;2.096;2023-11-19T20:13:01;11.10;99.90
10512;DHT22;5304;48.604;2.096;2023-11-19T20:15:53;11.10;99.90
10512;DHT22;5304;48.604;2.096;2023-11-19T20:18:37;11.10;99.90
10512;DHT22;5304;48.604;2.096;2023-11-19T20:21:22;11.10;99.90
10512;DHT22;5304;48.604;2.096;2023-11-19T20:24:06;11.10;99.90
10512;DHT22;5304;48.604;2.096;2023-11-19T20:26:51;11.10;99.90
10512;DHT22;5304;48.604;2.096;2023-11-19T20:29:37;11.00;99.90
10512;DHT22;5304;48.604;2.096;2023-11-19T20:32:22;11.00;99.90
10512;DHT22;5304;48.604;2.096;2023-11-19T20:35:07;10.90;99.90
10512;DHT22;5304;48.604;2.096;2023-11-19T20:37:52;10.90;99.90
10512;DHT22;5304;48.604;2.096;2023-11-19T20:40:37;10.90;99.90
10512;DHT22;5304;48.604;2.096;2023-11-19T20:43:23;10.90;99.90
10512;DHT22;5304;48.604;2.096;2023-11-19T20:46:07;10.80;99.90
10512;DHT22;5304;48.604;2.096;2023-11-19T20:48:51;10.80;99.90
10512;DHT22;5304;48.604;2.096;2023-11-19T20:51:36;10.80;99.90
10512;DHT22;5304;48.604;2.096;2023-11-19T20:54:20;10.80;99.90
10512;DHT22;5304;48.604;2.096;2023-11-19T20:57:05;10.80;99.90
10512;DHT22;5304;48.604;2.096;2023-11-19T20:59:49;10.70;99.90
10512;DHT22;5304;48.604;2.096;2023-11-19T21:02:33;10.70;99.90
10512;DHT22;5304;48.604;2.096;2023-11-19T21:05:17;10.70;99.90
10512;DHT22;5304;48.604;2.096;2023-11-19T21:08:02;10.70;99.90
10512;DHT22;5304;48.604;2.096;2023-11-19T21:10:46;10.60;99.90
10512;DHT22;5304;48.604;2.096;2023-11-19T21:13:32;10.60;99.90
10512;DHT22;5304;48.604;2.096;2023-11-19T21:16:16;10.60;99.90
10512;DHT22;5304;48.604;2.096;2023-11-19T21:19:01;10.60;99.90
10512;DHT22;5304;48.604;2.096;2023-11-19T21:21:45;10.60;99.90
10512;DHT22;5304;48.604;2.096;2023-11-19T21:24:30;10.60;99.90
10512;DHT22;5304;48.604;2.096;2023-11-19T21:27:14;10.60;99.90
10512;DHT22;5304;48.604;2.096;2023-11-19T21:29:58;10.50;99.90
10512;DHT22;5304;48.604;2.096;2023-11-19T21:32:43;10.50;99.90
10512;DHT22;5304;48.604;2.096;2023-11-19T21:35:27;10.40;99.90
10512;DHT22;5304;48.604;2.096;2023-11-19T21:38:11;10.50;99.90
10512;DHT22;5304;48.604;2.096;2023-11-19T21:40:55;10.50;99.90
10512;DHT22;5304;48.604;2.096;2023-11-19T21:43:39;10.50;99.90
10512;DHT22;5304;48.604;2.096;2023-11-19T21:46:23;10.40;99.90
10512;DHT22;5304;48.604;2.096;2023-11-19T21:49:08;10.40;99.90
10512;DHT22;5304;48.604;2.096;2023-11-19T21:51:52;10.40;99.90
10512;DHT22;5304;48.604;2.096;2023-11-19T21:54:36;10.40;99.90
10512;DHT22;5304;48.604;2.096;2023-11-19T21:57:21;10.40;99.90
10512;DHT22;5304;48.604;2.096;2023-11-19T22:00:06;10.40;99.90
10512;DHT22;5304;48.604;2.096;2023-11-19T22:02:51;10.40;99.90
